Time;durP1;ratioP1;P1;durP2;ratioP2;P2;SDS_P1;SDS_P2;PMS_P1;PMS_P2;Temp;Humidity;BMP_temperature;BMP_pressure;BME280_temperature;BME280_humidity;BME280_pressure;Samples;Min_cycle;Max_cycle;Signal;HPM_P1;HPM_P2
2021/07/17 00:02:19;;;;;;;11.20;5.97;;;23.70;62.80;;;;;;5086524;28;20205;-62
2021/07/17 00:04:48;;;;;;;10.33;5.23;;;23.60;62.60;;;;;;5080510;28;20210;-62
2021/07/17 00:07:18;;;;;;;12.10;6.40;;;23.60;62.60;;;;;;5078239;28;20769;-62
2021/07/17 00:09:47;;;;;;;11.37;5.37;;;23.60;62.50;;;;;;5079170;28;20278;-62
2021/07/17 00:12:43;;;;;;;10.90;5.87;;;23.60;62.80;;;;;;5090973;28;20728;-62
2021/07/17 00:15:12;;;;;;;11.87;6.13;;;23.60;62.80;;;;;;5105118;28;20224;-62
2021/07/17 00:17:42;;;;;;;10.70;4.83;;;23.60;62.90;;;;;;5086335;28;20204;-62
2021/07/17 00:20:13;;;;;;;10.83;5.80;;;23.60;62.90;;;;;;5107908;28;20220;-62
2021/07/17 00:22:43;;;;;;;9.33;5.40;;;23.60;62.90;;;;;;5106839;28;20222;-62
2021/07/17 00:25:19;;;;;;;10.20;5.23;;;23.60;63.00;;;;;;5108490;28;20204;-62
2021/07/17 00:27:48;;;;;;;9.73;4.93;;;23.60;62.90;;;;;;5106421;28;20207;-62
2021/07/17 00:30:21;;;;;;;10.03;5.07;;;23.60;62.80;;;;;;5107107;28;20193;-62
2021/07/17 00:32:48;;;;;;;8.47;5.03;;;23.60;62.90;;;;;;5104616;28;20249;-62
2021/07/17 00:35:18;;;;;;;10.03;5.53;;;23.60;62.90;;;;;;5111108;28;20207;-62
2021/07/17 00:37:51;;;;;;;12.70;5.97;;;23.60;62.80;;;;;;5097888;28;20212;-62
2021/07/17 00:40:21;;;;;;;9.17;5.23;;;23.50;62.80;;;;;;5111671;28;20586;-62
2021/07/17 00:42:55;;;;;;;10.57;5.47;;;23.50;62.80;;;;;;5104616;28;20200;-62
2021/07/17 00:45:23;;;;;;;9.33;5.03;;;23.50;62.80;;;;;;5108672;28;20189;-63
2021/07/17 00:47:55;;;;;;;10.10;5.23;;;23.60;62.80;;;;;;5102330;28;20831;-62
2021/07/17 00:50:27;;;;;;;11.40;5.37;;;23.50;62.80;;;;;;5112048;28;20202;-63
2021/07/17 00:52:58;;;;;;;10.20;5.50;;;23.60;63.00;;;;;;5109835;28;20517;-63
2021/07/17 00:55:29;;;;;;;9.37;5.50;;;23.60;63.00;;;;;;5100473;28;20216;-63
2021/07/17 00:57:59;;;;;;;10.17;5.47;;;23.50;63.00;;;;;;5099538;28;20236;-62
2021/07/17 01:00:27;;;;;;;9.57;5.10;;;23.50;63.10;;;;;;5109551;28;20277;-62
2021/07/17 01:03:05;;;;;;;9.67;5.33;;;23.50;63.10;;;;;;5107544;28;20215;-63
2021/07/17 01:05:48;;;;;;;10.87;4.70;;;23.50;63.00;;;;;;5102888;28;20227;-63
2021/07/17 01:08:21;;;;;;;10.47;5.50;;;23.50;62.80;;;;;;5094036;28;20192;-62
2021/07/17 01:10:50;;;;;;;10.20;5.43;;;23.50;62.90;;;;;;5094362;28;20200;-62
2021/07/17 01:13:22;;;;;;;10.20;5.07;;;23.50;62.70;;;;;;5108733;28;20673;-62
2021/07/17 01:15:50;;;;;;;9.30;5.03;;;23.50;62.80;;;;;;5107676;28;20196;-62
2021/07/17 01:18:24;;;;;;;9.30;5.37;;;23.50;62.90;;;;;;5111976;28;20215;-62
2021/07/17 01:20:56;;;;;;;9.13;5.13;;;23.40;62.90;;;;;;5108829;28;20206;-62
2021/07/17 01:23:25;;;;;;;7.93;4.97;;;23.50;62.80;;;;;;5102478;28;20228;-63
2021/07/17 01:25:58;;;;;;;10.00;5.30;;;23.50;63.10;;;;;;5110128;28;20192;-63
2021/07/17 01:28:29;;;;;;;9.80;5.53;;;23.50;63.10;;;;;;5100252;28;20626;-62
2021/07/17 01:31:08;;;;;;;9.67;4.97;;;23.50;63.20;;;;;;5100573;28;20207;-62
2021/07/17 01:33:39;;;;;;;14.27;5.67;;;23.50;63.30;;;;;;5104661;28;20211;-62
2021/07/17 01:36:11;;;;;;;9.30;5.00;;;23.50;63.40;;;;;;5105312;28;20535;-63
2021/07/17 01:38:44;;;;;;;13.30;5.57;;;23.50;63.20;;;;;;5105246;28;20192;-62
2021/07/17 01:41:14;;;;;;;7.57;5.03;;;23.50;63.30;;;;;;5103963;28;20215;-63
2021/07/17 01:43:45;;;;;;;8.67;5.33;;;23.50;63.30;;;;;;5103313;28;20200;-62
2021/07/17 01:46:16;;;;;;;13.43;6.20;;;23.40;63.10;;;;;;5103940;28;20202;-62
2021/07/17 01:48:54;;;;;;;9.17;4.90;;;23.50;63.30;;;;;;5103084;28;20522;-62
2021/07/17 01:51:23;;;;;;;8.20;4.70;;;23.50;63.50;;;;;;5087740;28;20199;-62
2021/07/17 01:54:17;;;;;;;10.47;5.20;;;23.50;63.40;;;;;;5100834;28;20509;-62
2021/07/17 01:56:48;;;;;;;8.50;5.13;;;23.50;63.30;;;;;;5101722;28;20830;-62
2021/07/17 01:59:17;;;;;;;8.70;4.70;;;23.50;63.40;;;;;;5108136;28;20184;-62
2021/07/17 02:01:56;;;;;;;9.10;4.90;;;23.50;63.40;;;;;;5098859;28;20254;-62
2021/07/17 02:04:27;;;;;;;8.20;4.63;;;23.50;63.50;;;;;;5104271;28;20228;-62
2021/07/17 02:07:00;;;;;;;9.63;5.10;;;23.50;63.50;;;;;;5100716;28;20232;-62
2021/07/17 02:09:31;;;;;;;9.83;5.17;;;23.50;63.50;;;;;;5106039;28;20201;-62
2021/07/17 02:12:07;;;;;;;11.03;5.50;;;23.40;63.20;;;;;;5099326;28;20262;-62
2021/07/17 02:14:58;;;;;;;10.13;5.53;;;23.50;63.50;;;;;;5104600;28;20260;-62
2021/07/17 02:17:26;;;;;;;7.77;4.93;;;23.40;63.40;;;;;;5103604;28;20215;-62
2021/07/17 02:19:57;;;;;;;10.40;5.43;;;23.40;63.30;;;;;;5103084;28;20212;-62
2021/07/17 02:22:26;;;;;;;8.40;4.53;;;23.40;63.40;;;;;;5104436;28;20195;-62
2021/07/17 02:24:56;;;;;;;8.63;5.17;;;23.40;63.50;;;;;;5099982;28;20220;-62
2021/07/17 02:27:26;;;;;;;7.87;5.27;;;23.40;64.10;;;;;;5107787;28;20192;-62
2021/07/17 02:29:57;;;;;;;10.03;5.13;;;23.40;63.50;;;;;;5098935;28;20291;-62
2021/07/17 02:32:28;;;;;;;8.17;4.90;;;23.50;63.50;;;;;;5103973;28;20197;-62
2021/07/17 02:34:59;;;;;;;8.53;5.50;;;23.50;63.50;;;;;;5102984;28;20228;-62
2021/07/17 02:37:39;;;;;;;7.77;5.17;;;23.40;63.40;;;;;;5110366;28;20636;-62
2021/07/17 02:40:11;;;;;;;6.77;4.80;;;23.40;63.50;;;;;;5104790;28;20208;-62
2021/07/17 02:42:39;;;;;;;9.00;5.13;;;23.40;63.30;;;;;;5106859;28;20197;-62
2021/07/17 02:45:12;;;;;;;8.03;5.20;;;23.40;63.50;;;;;;5107522;28;20220;-62
2021/07/17 02:47:44;;;;;;;8.47;4.60;;;23.40;63.60;;;;;;5109783;28;20200;-62
2021/07/17 02:50:14;;;;;;;8.93;4.87;;;23.40;63.50;;;;;;5108829;28;20208;-62
2021/07/17 02:52:45;;;;;;;8.10;4.90;;;23.40;63.60;;;;;;5109290;28;20189;-62
2021/07/17 02:55:21;;;;;;;9.17;5.20;;;23.40;63.60;;;;;;5097255;28;20221;-62
2021/07/17 02:57:52;;;;;;;9.40;5.40;;;23.40;63.70;;;;;;5105747;28;20201;-62
2021/07/17 03:00:22;;;;;;;9.20;4.90;;;23.40;63.40;;;;;;5112078;28;20819;-62
2021/07/17 03:02:52;;;;;;;10.40;5.47;;;23.40;63.30;;;;;;5103836;28;20553;-62
2021/07/17 03:05:20;;;;;;;8.77;5.03;;;23.40;63.20;;;;;;5102729;28;20681;-62
2021/07/17 03:07:49;;;;;;;8.67;5.10;;;23.30;63.20;;;;;;5097713;28;20197;-62
2021/07/17 03:10:22;;;;;;;9.77;5.30;;;23.40;63.40;;;;;;5099896;28;20529;-62
2021/07/17 03:12:55;;;;;;;8.87;5.17;;;23.40;63.30;;;;;;5098829;28;20221;-62
2021/07/17 03:15:29;;;;;;;10.43;5.27;;;23.30;63.10;;;;;;5108712;28;20246;-62
2021/07/17 03:17:58;;;;;;;8.33;5.07;;;23.40;63.30;;;;;;5097972;28;20197;-62
2021/07/17 03:20:27;;;;;;;10.17;5.30;;;23.30;63.50;;;;;;5098255;28;20208;-62
2021/07/17 03:22:56;;;;;;;8.70;5.40;;;23.30;63.40;;;;;;5101278;28;20692;-62
2021/07/17 03:25:27;;;;;;;7.97;5.43;;;23.40;63.30;;;;;;5108033;28;20223;-62
2021/07/17 03:27:58;;;;;;;9.50;5.20;;;23.40;63.30;;;;;;5105248;28;20856;-62
2021/07/17 03:30:30;;;;;;;7.97;4.87;;;23.30;63.50;;;;;;5103813;28;20209;-62
2021/07/17 03:33:00;;;;;;;8.60;5.00;;;23.30;63.50;;;;;;5111395;28;20583;-62
2021/07/17 03:35:29;;;;;;;8.10;4.87;;;23.40;63.60;;;;;;5102482;28;20319;-62
2021/07/17 03:38:00;;;;;;;9.63;5.20;;;23.40;63.60;;;;;;5101017;28;20209;-62
2021/07/17 03:40:28;;;;;;;9.00;5.30;;;23.40;63.70;;;;;;5104201;28;20193;-62
2021/07/17 03:42:58;;;;;;;8.57;5.10;;;23.30;63.70;;;;;;5098366;28;20743;-62
2021/07/17 03:45:31;;;;;;;9.37;5.30;;;23.30;63.80;;;;;;5102262;28;20543;-62
2021/07/17 03:48:03;;;;;;;9.37;5.20;;;23.30;63.60;;;;;;5108471;28;20615;-62
2021/07/17 03:50:37;;;;;;;7.77;4.70;;;23.30;63.50;;;;;;5107021;28;20205;-62
2021/07/17 03:53:08;;;;;;;9.47;5.10;;;23.30;63.40;;;;;;5109389;28;20706;-62
2021/07/17 03:55:40;;;;;;;11.03;5.63;;;23.30;63.40;;;;;;5099019;28;20197;-62
2021/07/17 03:58:07;;;;;;;7.93;4.90;;;23.30;63.30;;;;;;5109687;28;20211;-62
2021/07/17 04:00:41;;;;;;;8.23;5.53;;;23.30;63.30;;;;;;5104464;28;20261;-62
2021/07/17 04:03:12;;;;;;;10.80;5.90;;;23.30;63.40;;;;;;5106286;28;20718;-62
2021/07/17 04:05:45;;;;;;;7.93;5.50;;;23.30;63.30;;;;;;5108562;28;20283;-62
2021/07/17 04:08:18;;;;;;;13.10;6.37;;;23.30;63.40;;;;;;5104222;28;20207;-63
2021/07/17 04:10:47;;;;;;;8.57;5.20;;;23.30;63.20;;;;;;5108880;28;20222;-62
2021/07/17 04:13:19;;;;;;;11.07;5.20;;;23.30;63.20;;;;;;5099016;28;20576;-62
2021/07/17 04:15:54;;;;;;;12.10;6.27;;;23.30;63.10;;;;;;5090881;28;20201;-62
2021/07/17 04:18:26;;;;;;;8.07;5.47;;;23.30;63.20;;;;;;5099999;28;20237;-62
2021/07/17 04:20:54;;;;;;;11.73;6.30;;;23.20;63.10;;;;;;5107730;28;20212;-62
2021/07/17 04:23:23;;;;;;;10.93;5.87;;;23.30;63.00;;;;;;5101073;28;20668;-62
2021/07/17 04:25:56;;;;;;;11.60;6.00;;;23.20;63.00;;;;;;5104342;28;20207;-62
2021/07/17 04:28:25;;;;;;;8.30;5.27;;;23.20;63.80;;;;;;5097239;28;20197;-62
2021/07/17 04:30:57;;;;;;;9.63;5.73;;;23.30;63.00;;;;;;5104710;28;20204;-62
2021/07/17 04:33:34;;;;;;;10.90;5.57;;;23.20;63.00;;;;;;5095649;28;20276;-62
2021/07/17 04:36:09;;;;;;;11.20;5.53;;;23.30;63.00;;;;;;5099288;28;20196;-63
2021/07/17 04:38:39;;;;;;;9.57;5.77;;;23.30;63.00;;;;;;5108207;28;20216;-63
2021/07/17 04:41:10;;;;;;;10.03;5.60;;;23.20;63.00;;;;;;5104370;28;20216;-63
2021/07/17 04:43:39;;;;;;;11.23;5.97;;;23.20;62.90;;;;;;5106337;28;20645;-62
2021/07/17 04:46:11;;;;;;;11.27;5.87;;;23.20;63.10;;;;;;5101781;28;20209;-62
2021/07/17 04:48:41;;;;;;;9.20;5.20;;;23.20;63.00;;;;;;5108065;28;20205;-62
2021/07/17 04:51:11;;;;;;;10.73;5.93;;;23.20;62.90;;;;;;5099877;28;20208;-62
2021/07/17 04:53:41;;;;;;;10.43;5.87;;;23.20;63.00;;;;;;5107967;28;20197;-62
2021/07/17 04:56:10;;;;;;;10.40;5.50;;;23.30;62.90;;;;;;5102249;28;20192;-63
2021/07/17 04:58:42;;;;;;;9.87;5.73;;;23.20;63.00;;;;;;5107963;28;20604;-63
2021/07/17 05:01:13;;;;;;;9.87;5.53;;;23.20;63.20;;;;;;5099348;28;20200;-62
2021/07/17 05:03:44;;;;;;;6.97;4.97;;;23.20;63.20;;;;;;5103568;28;20245;-62
2021/07/17 05:06:22;;;;;;;9.37;5.90;;;23.20;63.20;;;;;;5103882;28;20207;-62
2021/07/17 05:08:50;;;;;;;9.77;5.43;;;23.30;62.90;;;;;;5109018;28;20254;-62
2021/07/17 05:11:22;;;;;;;10.73;5.40;;;23.20;62.80;;;;;;5095700;28;20638;-63
2021/07/17 05:13:51;;;;;;;9.43;5.80;;;23.20;62.80;;;;;;5102844;28;20225;-63
2021/07/17 05:16:23;;;;;;;10.43;5.30;;;23.20;62.70;;;;;;5108984;28;20192;-62
2021/07/17 05:18:51;;;;;;;10.47;5.60;;;23.20;62.80;;;;;;5103870;28;20196;-62
2021/07/17 05:21:19;;;;;;;8.43;5.70;;;23.20;62.80;;;;;;5100706;28;20199;-62
2021/07/17 05:23:49;;;;;;;9.83;5.30;;;23.20;62.80;;;;;;5099779;28;20197;-62
2021/07/17 05:26:19;;;;;;;11.07;5.40;;;23.20;62.70;;;;;;5091279;28;20204;-62
2021/07/17 05:28:49;;;;;;;10.20;6.33;;;23.20;62.60;;;;;;5099010;28;20200;-62
2021/07/17 05:31:18;;;;;;;9.40;5.23;;;23.20;62.60;;;;;;5105985;28;20636;-62
2021/07/17 05:34:01;;;;;;;9.80;5.80;;;23.20;62.70;;;;;;5098997;28;20231;-62
2021/07/17 05:36:31;;;;;;;12.63;6.30;;;23.20;62.40;;;;;;5107714;28;20683;-62
2021/07/17 05:38:59;;;;;;;12.23;6.83;;;23.20;62.50;;;;;;5100998;28;20200;-61
2021/07/17 05:41:30;;;;;;;11.13;5.63;;;23.20;62.40;;;;;;5097967;28;20200;-62
2021/07/17 05:43:59;;;;;;;11.73;6.37;;;23.20;62.50;;;;;;5096783;28;20838;-63
2021/07/17 05:46:42;;;;;;;10.07;5.87;;;23.20;62.40;;;;;;5097115;28;20279;-62
2021/07/17 05:49:16;;;;;;;13.73;6.33;;;23.20;62.40;;;;;;5106547;28;20192;-62
2021/07/17 05:51:46;;;;;;;11.80;6.43;;;23.20;62.50;;;;;;5098232;28;20197;-62
2021/07/17 05:54:16;;;;;;;11.43;6.03;;;23.20;62.50;;;;;;5105501;28;20680;-62
2021/07/17 05:56:46;;;;;;;14.63;7.20;;;23.20;62.50;;;;;;5104316;28;20213;-61
2021/07/17 05:59:14;;;;;;;12.80;6.37;;;23.20;62.50;;;;;;5110267;28;20242;-61
2021/07/17 06:01:47;;;;;;;14.70;6.67;;;23.20;62.30;;;;;;5098487;28;20220;-62
2021/07/17 06:04:19;;;;;;;10.70;6.43;;;23.10;62.40;;;;;;5107458;28;20297;-62
2021/07/17 06:06:49;;;;;;;10.80;6.53;;;23.10;62.40;;;;;;5101069;28;20214;-61
2021/07/17 06:09:20;;;;;;;14.03;6.77;;;23.10;62.50;;;;;;5107274;28;20277;-61
2021/07/17 06:11:51;;;;;;;12.23;6.60;;;23.10;62.40;;;;;;5105629;28;20185;-62
2021/07/17 06:14:24;;;;;;;11.43;6.57;;;23.10;62.50;;;;;;5110241;28;20651;-62
2021/07/17 06:16:53;;;;;;;11.80;6.70;;;23.10;62.60;;;;;;5105812;28;20206;-62
2021/07/17 06:19:25;;;;;;;14.73;6.30;;;23.10;62.60;;;;;;5105815;28;20200;-62
2021/07/17 06:21:55;;;;;;;15.30;6.57;;;23.10;62.60;;;;;;5107261;28;20213;-62
2021/07/17 06:24:25;;;;;;;11.17;6.47;;;23.10;62.60;;;;;;5103633;28;20228;-62
2021/07/17 06:26:52;;;;;;;14.27;6.80;;;23.10;62.70;;;;;;5110764;28;20196;-63
2021/07/17 06:29:20;;;;;;;11.90;6.43;;;23.10;62.80;;;;;;5102688;28;20746;-63
2021/07/17 06:31:50;;;;;;;16.87;6.67;;;23.10;62.90;;;;;;5101993;28;20200;-63
2021/07/17 06:34:21;;;;;;;10.00;6.37;;;23.10;62.80;;;;;;5101947;28;20217;-64
2021/07/17 06:36:52;;;;;;;12.93;6.77;;;23.10;62.90;;;;;;5099220;28;20725;-63
2021/07/17 06:39:25;;;;;;;11.10;6.33;;;23.10;62.90;;;;;;5102327;28;20869;-63
2021/07/17 06:41:53;;;;;;;12.30;6.57;;;23.10;62.80;;;;;;5096377;28;20426;-65
2021/07/17 06:44:25;;;;;;;9.23;6.20;;;23.20;62.80;;;;;;5104257;28;20225;-66
2021/07/17 06:46:56;;;;;;;12.20;5.80;;;23.20;62.80;;;;;;5103338;28;20816;-64
2021/07/17 06:49:27;;;;;;;11.43;6.20;;;23.30;63.00;;;;;;5101724;28;20204;-64
2021/07/17 06:52:02;;;;;;;12.40;6.50;;;23.30;63.00;;;;;;5098106;28;20203;-64
2021/07/17 06:54:45;;;;;;;13.53;6.90;;;23.30;63.00;;;;;;5073454;28;20193;-63
2021/07/17 06:57:17;;;;;;;13.33;6.50;;;23.40;62.80;;;;;;5102799;28;20208;-63
2021/07/17 06:59:49;;;;;;;14.17;6.00;;;23.40;62.70;;;;;;5107114;28;20613;-66
2021/07/17 07:02:19;;;;;;;12.73;6.10;;;23.40;62.60;;;;;;5105205;28;20212;-63
2021/07/17 07:04:49;;;;;;;10.83;6.17;;;23.50;62.80;;;;;;5106347;28;20510;-65
2021/07/17 07:07:19;;;;;;;11.97;6.23;;;23.50;62.80;;;;;;5090326;28;20208;-66
2021/07/17 07:09:48;;;;;;;15.20;6.20;;;23.60;62.80;;;;;;5103901;28;20206;-65
2021/07/17 07:12:17;;;;;;;13.27;6.10;;;23.60;62.60;;;;;;5104672;28;20244;-65
2021/07/17 07:14:45;;;;;;;10.77;5.77;;;23.60;62.70;;;;;;5106807;28;20184;-65
2021/07/17 07:17:14;;;;;;;8.30;4.77;;;23.70;62.60;;;;;;5107818;28;20200;-65
2021/07/17 07:19:43;;;;;;;11.17;5.13;;;23.70;62.60;;;;;;5105496;28;20871;-65
2021/07/17 07:22:16;;;;;;;11.83;5.77;;;23.70;62.60;;;;;;5100989;28;20212;-64
2021/07/17 07:24:49;;;;;;;11.70;6.10;;;23.70;62.20;;;;;;5106597;27;20978;-65
2021/07/17 07:27:21;;;;;;;12.77;6.30;;;23.70;61.70;;;;;;5089283;28;20202;-65
2021/07/17 07:29:58;;;;;;;12.90;5.50;;;23.60;61.60;;;;;;5106584;28;20196;-66
2021/07/17 07:32:30;;;;;;;10.93;6.07;;;23.60;61.70;;;;;;5085567;28;20221;-66
2021/07/17 07:35:01;;;;;;;15.33;6.37;;;23.60;61.70;;;;;;5106471;28;20431;-66
2021/07/17 07:37:38;;;;;;;13.93;6.53;;;23.60;62.40;;;;;;5103022;28;20200;-64
2021/07/17 07:40:07;;;;;;;20.20;7.93;;;23.60;63.20;;;;;;5108317;28;20194;-64
2021/07/17 07:42:38;;;;;;;22.00;8.03;;;23.60;63.60;;;;;;5105606;28;20211;-64
2021/07/17 07:45:13;;;;;;;19.47;7.73;;;23.60;63.40;;;;;;5107669;27;20212;-65
2021/07/17 07:47:45;;;;;;;20.23;8.50;;;23.60;63.30;;;;;;5103907;28;20206;-65
2021/07/17 07:50:15;;;;;;;14.60;7.00;;;23.60;63.90;;;;;;5088862;28;20201;-64
2021/07/17 07:52:59;;;;;;;15.70;7.40;;;23.60;63.20;;;;;;5110207;28;20622;-65
2021/07/17 07:55:34;;;;;;;15.47;6.30;;;23.60;63.40;;;;;;5102565;28;20279;-63
2021/07/17 07:58:05;;;;;;;17.53;6.67;;;23.60;63.40;;;;;;5086306;28;20208;-64
2021/07/17 08:00:36;;;;;;;15.80;6.30;;;23.60;63.20;;;;;;5104138;28;20273;-62
2021/07/17 08:03:13;;;;;;;14.20;5.33;;;23.60;63.20;;;;;;5108285;28;20316;-64
2021/07/17 08:05:42;;;;;;;15.80;5.83;;;23.60;63.10;;;;;;5096377;27;20216;-63
2021/07/17 08:08:11;;;;;;;16.43;6.30;;;23.60;62.70;;;;;;5100806;28;20221;-63
2021/07/17 08:10:44;;;;;;;9.70;5.30;;;23.60;63.00;;;;;;5105690;28;20280;-65
2021/07/17 08:13:14;;;;;;;11.83;5.70;;;23.60;63.00;;;;;;5105142;28;20572;-65
2021/07/17 08:15:57;;;;;;;12.10;5.70;;;23.60;62.90;;;;;;5105430;28;20188;-64
2021/07/17 08:18:27;;;;;;;13.10;6.10;;;23.60;63.00;;;;;;5101501;28;20215;-63
2021/07/17 08:20:57;;;;;;;10.07;5.07;;;23.70;63.00;;;;;;5105130;28;20204;-64
2021/07/17 08:23:27;;;;;;;11.47;5.40;;;23.70;62.90;;;;;;5088330;28;20608;-64
2021/07/17 08:26:05;;;;;;;9.90;5.03;;;23.70;62.80;;;;;;5098311;28;20212;-64
2021/07/17 08:28:33;;;;;;;11.47;5.03;;;23.70;62.70;;;;;;5103894;28;20199;-64
2021/07/17 08:31:01;;;;;;;8.90;4.80;;;23.60;62.70;;;;;;5098722;28;20204;-64
2021/07/17 08:33:28;;;;;;;10.93;4.53;;;23.60;62.70;;;;;;5104882;28;20196;-63
2021/07/17 08:36:00;;;;;;;9.53;4.57;;;23.70;62.80;;;;;;5102251;28;20208;-65
2021/07/17 08:38:31;;;;;;;11.20;5.33;;;23.70;62.70;;;;;;5106882;28;20521;-64
2021/07/17 08:41:08;;;;;;;8.33;4.10;;;23.70;62.90;;;;;;5100952;28;20677;-63
2021/07/17 08:43:39;;;;;;;10.07;4.60;;;23.70;62.80;;;;;;5106200;28;20194;-64
2021/07/17 08:46:12;;;;;;;7.90;4.40;;;23.70;62.60;;;;;;5107872;28;20217;-63
2021/07/17 08:48:44;;;;;;;8.57;3.90;;;23.70;62.50;;;;;;5124737;27;20204;-64
2021/07/17 08:51:15;;;;;;;8.03;4.50;;;23.70;62.60;;;;;;5108840;28;20193;-64
2021/07/17 08:53:48;;;;;;;10.83;4.83;;;23.70;62.70;;;;;;5100507;28;20533;-64
2021/07/17 08:56:17;;;;;;;8.37;4.53;;;23.70;62.80;;;;;;5103614;28;20549;-63
2021/07/17 08:58:45;;;;;;;10.53;5.20;;;23.80;62.90;;;;;;5108751;28;20212;-63
2021/07/17 09:01:15;;;;;;;13.30;5.40;;;23.80;62.90;;;;;;5102418;28;20223;-63
2021/07/17 09:03:49;;;;;;;13.73;5.00;;;23.80;63.20;;;;;;5098101;28;20220;-63
2021/07/17 09:06:21;;;;;;;10.63;4.67;;;23.80;63.00;;;;;;5098898;28;20212;-64
2021/07/17 09:08:53;;;;;;;10.97;5.37;;;23.80;62.90;;;;;;5108609;28;20255;-64
2021/07/17 09:11:37;;;;;;;10.97;5.17;;;23.90;63.20;;;;;;5101018;28;20215;-64
2021/07/17 09:14:08;;;;;;;7.13;4.70;;;23.90;63.10;;;;;;5104702;28;20226;-64
2021/07/17 09:16:39;;;;;;;8.97;4.73;;;23.80;62.80;;;;;;5107689;28;20570;-64
2021/07/17 09:19:12;;;;;;;6.43;4.30;;;23.90;62.80;;;;;;5105176;28;20216;-64
2021/07/17 09:21:41;;;;;;;8.33;4.40;;;23.90;62.80;;;;;;5090672;28;20298;-64
2021/07/17 09:24:20;;;;;;;6.90;4.40;;;23.90;62.80;;;;;;5093110;28;20296;-63
2021/07/17 09:26:58;;;;;;;9.77;4.83;;;23.90;62.90;;;;;;5105215;28;20712;-65
2021/07/17 09:29:38;;;;;;;11.93;4.57;;;23.90;63.40;;;;;;5103865;28;20326;-65
2021/07/17 09:32:15;;;;;;;7.37;4.33;;;23.90;63.50;;;;;;5098542;28;20239;-65
2021/07/17 09:34:45;;;;;;;8.17;4.27;;;24.00;63.30;;;;;;5104154;28;20672;-65
2021/07/17 09:37:30;;;;;;;8.07;4.30;;;24.00;63.40;;;;;;5101783;28;20208;-63
2021/07/17 09:40:08;;;;;;;10.93;4.40;;;23.90;62.50;;;;;;5089464;28;20296;-63
2021/07/17 09:42:44;;;;;;;9.53;4.90;;;24.00;62.90;;;;;;5102197;28;20203;-63
2021/07/17 09:45:39;;;;;;;12.97;5.30;;;24.00;63.20;;;;;;5085376;28;20217;-65
2021/07/17 09:48:29;;;;;;;10.20;4.77;;;24.10;63.30;;;;;;5101155;28;20205;-65
2021/07/17 09:51:01;;;;;;;10.47;4.60;;;24.10;63.40;;;;;;5101265;28;20239;-65
2021/07/17 09:53:46;;;;;;;8.40;4.30;;;24.20;63.30;;;;;;5107374;28;20227;-65
2021/07/17 09:56:24;;;;;;;7.50;3.93;;;24.30;63.30;;;;;;5101950;28;20288;-64
2021/07/17 09:59:10;;;;;;;8.23;4.37;;;24.30;63.20;;;;;;5106964;28;20299;-63
2021/07/17 10:01:44;;;;;;;9.57;4.00;;;24.40;63.10;;;;;;5104767;28;20261;-63
2021/07/17 10:04:25;;;;;;;10.60;4.33;;;24.50;63.20;;;;;;5098310;28;20256;-64
2021/07/17 10:07:16;;;;;;;7.87;3.73;;;24.50;62.50;;;;;;5109458;28;20609;-65
2021/07/17 10:09:59;;;;;;;6.57;3.60;;;24.50;62.80;;;;;;5104049;28;20185;-65
2021/07/17 10:12:43;;;;;;;6.00;3.33;;;24.60;63.00;;;;;;5106915;27;20216;-65
2021/07/17 10:15:17;;;;;;;6.33;3.20;;;24.70;62.90;;;;;;5110881;28;20196;-65
2021/07/17 10:17:49;;;;;;;9.27;3.43;;;24.70;62.90;;;;;;5102068;28;20619;-62
2021/07/17 10:20:20;;;;;;;4.73;3.10;;;24.80;62.60;;;;;;5105608;28;20185;-65
2021/07/17 10:22:51;;;;;;;5.63;3.00;;;24.90;61.90;;;;;;5106708;28;20197;-65
2021/07/17 10:25:24;;;;;;;4.17;2.57;;;24.90;61.40;;;;;;5097152;28;20209;-64
2021/07/17 10:27:55;;;;;;;4.97;2.70;;;25.00;61.50;;;;;;5102603;28;20212;-66
2021/07/17 10:30:26;;;;;;;5.17;2.73;;;25.00;61.50;;;;;;5102808;28;20204;-65
2021/07/17 10:32:57;;;;;;;5.53;3.00;;;25.00;61.80;;;;;;5102306;28;20212;-65
2021/07/17 10:35:27;;;;;;;6.90;3.20;;;25.10;61.80;;;;;;5104878;28;20212;-62
2021/07/17 10:37:59;;;;;;;8.20;3.00;;;25.10;61.60;;;;;;5104722;28;20200;-62
2021/07/17 10:40:29;;;;;;;4.90;2.73;;;25.10;60.30;;;;;;5099355;28;20215;-62
2021/07/17 10:43:05;;;;;;;7.33;2.80;;;25.10;60.40;;;;;;5104112;28;20198;-62
2021/07/17 10:45:40;;;;;;;6.10;2.83;;;25.20;59.90;;;;;;5095477;28;20794;-61
2021/07/17 10:48:30;;;;;;;4.17;2.53;;;25.20;60.60;;;;;;5111396;28;20621;-62
2021/07/17 10:51:23;;;;;;;5.27;2.87;;;25.30;59.90;;;;;;5106928;28;20235;-62
2021/07/17 10:53:54;;;;;;;7.93;3.30;;;25.30;60.00;;;;;;5093371;28;20185;-62
2021/07/17 10:56:37;;;;;;;6.07;2.83;;;25.40;60.10;;;;;;5090319;28;20209;-62
2021/07/17 10:59:13;;;;;;;9.23;3.17;;;25.40;59.70;;;;;;5110713;28;20204;-62
2021/07/17 11:02:02;;;;;;;6.83;3.10;;;25.40;58.60;;;;;;5101799;28;20230;-62
2021/07/17 11:04:38;;;;;;;7.47;3.07;;;25.40;59.80;;;;;;5106814;28;20295;-62
2021/07/17 11:07:19;;;;;;;7.00;2.90;;;25.40;60.10;;;;;;5100442;28;20345;-62
2021/07/17 11:10:12;;;;;;;5.83;3.10;;;25.50;60.20;;;;;;5100205;28;20214;-64
2021/07/17 11:12:51;;;;;;;4.90;2.70;;;25.50;60.20;;;;;;5097311;28;20297;-65
2021/07/17 11:15:21;;;;;;;6.17;2.80;;;25.50;60.00;;;;;;5106427;28;20211;-64
2021/07/17 11:17:54;;;;;;;7.10;3.27;;;25.60;59.00;;;;;;5103085;28;20211;-64
2021/07/17 11:20:36;;;;;;;5.57;2.87;;;25.60;58.70;;;;;;5098823;28;20226;-65
2021/07/17 11:23:20;;;;;;;5.50;2.60;;;25.60;60.00;;;;;;5090949;28;20196;-65
2021/07/17 11:26:10;;;;;;;3.67;2.30;;;25.70;59.90;;;;;;5097438;28;20226;-65
2021/07/17 11:28:51;;;;;;;3.97;2.10;;;25.60;57.60;;;;;;5101979;28;20208;-65
2021/07/17 11:31:48;;;;;;;4.63;2.67;;;25.70;57.50;;;;;;5097469;28;20300;-64
2021/07/17 11:34:24;;;;;;;3.83;2.50;;;25.70;57.80;;;;;;5097667;28;20293;-65
2021/07/17 11:36:57;;;;;;;4.03;2.47;;;25.70;57.90;;;;;;5099196;28;20207;-65
2021/07/17 11:39:33;;;;;;;4.93;2.13;;;25.70;58.20;;;;;;5098902;28;20213;-65
2021/07/17 11:42:18;;;;;;;6.57;2.60;;;25.70;58.30;;;;;;5094618;28;20288;-65
2021/07/17 11:44:51;;;;;;;2.93;1.93;;;25.70;57.60;;;;;;5095815;28;20200;-65
2021/07/17 11:47:24;;;;;;;5.70;2.10;;;25.80;57.60;;;;;;5099451;28;20216;-66
2021/07/17 11:50:05;;;;;;;3.50;2.00;;;25.80;57.30;;;;;;5100367;28;20288;-65
2021/07/17 11:52:36;;;;;;;3.73;1.97;;;25.80;57.40;;;;;;5097448;28;20735;-65
2021/07/17 11:55:10;;;;;;;3.20;1.90;;;25.90;57.20;;;;;;5096441;28;20197;-65
2021/07/17 11:57:45;;;;;;;4.90;2.07;;;25.90;57.60;;;;;;5100832;28;20209;-65
2021/07/17 12:00:23;;;;;;;5.80;2.27;;;25.90;57.80;;;;;;5101052;28;20204;-65
2021/07/17 12:02:58;;;;;;;2.67;1.77;;;26.00;58.00;;;;;;5098226;28;20820;-65
2021/07/17 12:05:32;;;;;;;2.73;1.80;;;26.00;58.30;;;;;;5098108;28;20672;-65
2021/07/17 12:08:06;;;;;;;3.30;2.20;;;26.00;58.10;;;;;;5093553;28;20250;-64
2021/07/17 12:10:37;;;;;;;3.97;2.00;;;26.00;58.30;;;;;;5096269;28;20228;-65
2021/07/17 12:13:11;;;;;;;5.23;1.83;;;26.10;58.40;;;;;;5105111;28;20277;-64
2021/07/17 12:15:52;;;;;;;3.27;2.00;;;26.10;58.30;;;;;;5098723;28;20392;-65
2021/07/17 12:18:19;;;;;;;2.10;1.70;;;26.10;58.10;;;;;;5100767;28;20198;-65
2021/07/17 12:20:52;;;;;;;3.23;1.73;;;26.20;58.40;;;;;;5095093;28;20750;-65
2021/07/17 12:23:44;;;;;;;2.07;1.47;;;26.20;58.10;;;;;;5100301;28;20843;-65
2021/07/17 12:26:23;;;;;;;7.33;2.13;;;26.30;57.80;;;;;;5099652;28;20212;-65
2021/07/17 12:28:58;;;;;;;3.03;1.70;;;26.30;58.10;;;;;;5095150;28;20208;-65
2021/07/17 12:31:27;;;;;;;3.87;1.73;;;26.30;57.80;;;;;;5101664;28;20192;-65
2021/07/17 12:34:09;;;;;;;3.33;1.97;;;26.30;58.30;;;;;;5100357;28;20215;-65
2021/07/17 12:36:43;;;;;;;2.53;1.63;;;26.40;58.10;;;;;;5102796;28;20211;-65
2021/07/17 12:39:20;;;;;;;3.37;1.53;;;26.40;57.80;;;;;;5099145;28;20285;-65
2021/07/17 12:42:02;;;;;;;3.57;1.43;;;26.40;57.80;;;;;;5103403;28;20299;-65
2021/07/17 12:44:30;;;;;;;4.70;2.20;;;26.40;57.30;;;;;;5100427;28;20869;-65
2021/07/17 12:47:06;;;;;;;4.87;1.57;;;26.40;57.10;;;;;;5102116;28;20280;-63
2021/07/17 12:49:39;;;;;;;4.45;2.10;;;26.40;57.50;;;;;;5094832;28;20426;-64
2021/07/17 12:52:16;;;;;;;3.77;1.77;;;26.60;57.20;;;;;;5104970;28;20208;-62
2021/07/17 12:54:46;;;;;;;3.73;1.80;;;26.70;57.60;;;;;;5100340;28;20203;-62
2021/07/17 12:57:17;;;;;;;4.07;1.80;;;26.70;57.20;;;;;;5104259;28;20265;-62
2021/07/17 12:59:49;;;;;;;3.30;1.60;;;26.80;57.20;;;;;;5093391;28;20204;-62
2021/07/17 13:02:19;;;;;;;3.67;1.70;;;26.80;55.80;;;;;;5094537;28;20215;-63
2021/07/17 13:04:55;;;;;;;1.80;1.60;;;26.90;56.30;;;;;;5096169;28;20236;-65
2021/07/17 13:07:29;;;;;;;3.20;1.80;;;26.90;56.10;;;;;;5091819;28;20603;-64
2021/07/17 13:10:02;;;;;;;3.10;1.83;;;26.90;55.90;;;;;;5095968;28;20234;-63
2021/07/17 13:12:39;;;;;;;4.27;2.13;;;27.00;54.60;;;;;;5106080;27;20240;-64
2021/07/17 13:15:15;;;;;;;3.17;1.60;;;27.00;54.70;;;;;;5097592;28;20261;-64